Time;durP1;ratioP1;P1;durP2;ratioP2;P2;SDS_P1;SDS_P2;PMS_P1;PMS_P2;Temp;Humidity;BMP_temperature;BMP_pressure;BME280_temperature;BME280_humidity;BME280_pressure;Samples;Min_cycle;Max_cycle;Signal;HPM_P1;HPM_P2
2021/07/25 00:00:35;;;;;;;47.40;40.22;;;19.70;99.90;;;;;;5051685;28;20205;-83
2021/07/25 00:03:02;;;;;;;50.90;39.22;;;19.70;99.90;;;;;;5039504;28;20226;-85
2021/07/25 00:05:28;;;;;;;44.40;36.33;;;19.70;99.90;;;;;;5031281;28;20195;-86
2021/07/25 00:07:57;;;;;;;44.17;37.33;;;19.70;99.90;;;;;;5031417;28;20630;-86
2021/07/25 00:10:23;;;;;;;48.95;41.10;;;19.70;99.90;;;;;;5042610;28;20214;-85
2021/07/25 00:12:50;;;;;;;48.47;41.33;;;19.70;99.90;;;;;;5050888;28;20201;-85
2021/07/25 00:15:17;;;;;;;44.40;36.55;;;19.60;99.90;;;;;;5038071;28;20215;-85
2021/07/25 00:17:44;;;;;;;42.00;33.60;;;19.50;99.90;;;;;;5030827;28;20213;-85
2021/07/25 00:20:12;;;;;;;53.70;43.03;;;19.50;99.90;;;;;;5030881;28;20238;-86
2021/07/25 00:22:39;;;;;;;53.28;41.35;;;19.50;99.90;;;;;;5031493;28;20206;-84
2021/07/25 00:25:09;;;;;;;43.97;38.47;;;19.50;99.90;;;;;;5031710;28;20900;-85
2021/07/25 00:27:39;;;;;;;52.42;43.05;;;19.40;99.90;;;;;;5030806;28;20453;-86
2021/07/25 00:30:07;;;;;;;55.17;42.05;;;19.40;99.90;;;;;;5032849;28;20211;-85
2021/07/25 00:32:34;;;;;;;50.30;41.67;;;19.40;99.90;;;;;;5031432;28;20606;-84
2021/07/25 00:35:01;;;;;;;47.17;37.40;;;19.40;99.90;;;;;;5031036;28;20210;-83
2021/07/25 00:37:28;;;;;;;41.83;36.03;;;19.40;99.90;;;;;;5029521;28;20214;-81
2021/07/25 00:39:55;;;;;;;44.15;37.00;;;19.40;99.90;;;;;;5029877;28;20268;-85
2021/07/25 00:42:23;;;;;;;38.58;33.17;;;19.30;99.90;;;;;;5028198;28;20207;-82
2021/07/25 00:44:50;;;;;;;36.80;32.17;;;19.40;99.90;;;;;;5031536;28;20206;-81
2021/07/25 00:47:17;;;;;;;61.75;45.70;;;19.40;99.90;;;;;;5035560;28;20336;-83
2021/07/25 00:49:44;;;;;;;74.93;47.00;;;19.30;99.90;;;;;;5031573;28;20191;-82
2021/07/25 00:52:11;;;;;;;57.67;41.22;;;19.30;99.90;;;;;;5029999;28;20214;-82
2021/07/25 00:54:39;;;;;;;57.50;42.47;;;19.20;99.90;;;;;;5025572;28;20206;-83
2021/07/25 00:57:05;;;;;;;57.70;44.83;;;19.20;99.90;;;;;;5025613;28;20206;-83
2021/07/25 00:59:34;;;;;;;50.25;41.15;;;19.20;99.90;;;;;;5025755;28;20809;-83
2021/07/25 01:02:00;;;;;;;46.58;37.83;;;19.20;99.90;;;;;;5027404;28;20211;-83
2021/07/25 01:04:40;;;;;;;50.72;40.58;;;19.20;99.90;;;;;;5027277;28;20599;-86
2021/07/25 01:07:17;;;;;;;65.75;48.83;;;19.20;99.90;;;;;;5027804;28;20366;-87
2021/07/25 01:09:51;;;;;;;58.80;45.38;;;19.10;99.90;;;;;;5029782;28;20202;-88
2021/07/25 01:12:20;;;;;;;63.38;46.22;;;19.10;99.90;;;;;;5026935;28;20198;-84
2021/07/25 01:14:49;;;;;;;59.88;46.08;;;19.10;99.90;;;;;;5032283;28;20558;-81
2021/07/25 01:17:27;;;;;;;61.22;47.88;;;19.10;99.90;;;;;;5026030;28;20986;-79
2021/07/25 01:19:55;;;;;;;64.47;49.85;;;19.10;99.90;;;;;;5024771;28;20248;-82
2021/07/25 01:22:22;;;;;;;60.10;45.05;;;19.10;99.90;;;;;;5025072;28;20614;-79
2021/07/25 01:24:51;;;;;;;60.28;45.47;;;19.10;99.90;;;;;;5025072;28;20210;-78
2021/07/25 01:27:29;;;;;;;64.40;49.00;;;19.00;99.90;;;;;;5024259;28;20209;-80
2021/07/25 01:29:58;;;;;;;57.40;44.75;;;19.00;99.90;;;;;;5024711;28;20199;-83
2021/07/25 01:32:26;;;;;;;70.75;53.15;;;19.00;99.90;;;;;;5026092;28;20206;-83
2021/07/25 01:34:57;;;;;;;61.30;45.97;;;19.00;99.90;;;;;;5026097;28;20218;-81
2021/07/25 01:37:27;;;;;;;50.45;41.03;;;19.00;99.90;;;;;;5027404;28;20510;-82
2021/07/25 01:39:54;;;;;;;66.70;49.17;;;18.90;99.90;;;;;;5026177;28;20941;-82
2021/07/25 01:42:28;;;;;;;85.60;59.47;;;18.90;99.90;;;;;;5025492;28;20533;-86
2021/07/25 01:44:55;;;;;;;76.15;53.60;;;18.90;99.90;;;;;;5025122;28;20297;-86
2021/07/25 01:47:22;;;;;;;74.32;53.78;;;18.90;99.90;;;;;;5028078;28;20210;-86
2021/07/25 01:49:49;;;;;;;79.75;57.58;;;18.90;99.90;;;;;;5029060;28;20210;-88
2021/07/25 01:52:18;;;;;;;75.65;55.33;;;18.80;99.90;;;;;;5028988;28;20218;-85
2021/07/25 01:54:44;;;;;;;94.88;65.40;;;18.80;99.90;;;;;;5027824;28;20222;-90
2021/07/25 01:57:12;;;;;;;80.85;61.38;;;18.90;99.90;;;;;;5027510;28;20199;-84
2021/07/25 01:59:38;;;;;;;92.50;64.35;;;18.90;99.90;;;;;;5027689;28;20605;-86
2021/07/25 02:02:05;;;;;;;89.25;67.47;;;18.90;99.90;;;;;;5027306;28;20622;-82
2021/07/25 02:04:32;;;;;;;89.03;63.47;;;18.90;99.90;;;;;;5027906;28;20591;-87
2021/07/25 02:06:59;;;;;;;81.97;58.25;;;18.90;99.90;;;;;;5027724;28;20222;-87
2021/07/25 02:09:27;;;;;;;71.40;50.00;;;18.90;99.90;;;;;;5028077;28;20230;-89
2021/07/25 02:11:54;;;;;;;59.95;44.88;;;18.90;99.90;;;;;;5031451;28;20202;-81
2021/07/25 02:14:21;;;;;;;56.97;42.20;;;18.90;99.90;;;;;;5030840;28;20220;-81
2021/07/25 02:16:48;;;;;;;52.38;37.83;;;18.90;99.90;;;;;;5042732;28;20205;-82
2021/07/25 02:19:15;;;;;;;48.17;34.45;;;18.80;99.90;;;;;;5051936;28;20256;-84
2021/07/25 02:21:42;;;;;;;50.15;35.10;;;18.80;99.90;;;;;;5035808;28;20213;-84
2021/07/25 02:24:09;;;;;;;80.65;48.20;;;18.80;99.90;;;;;;5032995;28;20810;-85
2021/07/25 02:26:37;;;;;;;78.65;50.58;;;18.70;99.90;;;;;;5047249;28;20212;-81
2021/07/25 02:29:04;;;;;;;83.30;54.85;;;18.70;99.90;;;;;;5052724;28;20229;-85
2021/07/25 02:31:31;;;;;;;98.13;61.33;;;18.70;99.90;;;;;;5045811;28;20229;-81
2021/07/25 02:33:58;;;;;;;83.82;54.65;;;18.70;99.90;;;;;;5031025;28;20202;-83
2021/07/25 02:36:25;;;;;;;68.35;42.63;;;18.80;99.90;;;;;;5031661;28;20214;-82
2021/07/25 02:38:51;;;;;;;50.83;34.97;;;18.70;99.90;;;;;;5030628;28;20199;-81
2021/07/25 02:41:18;;;;;;;44.85;31.70;;;18.70;99.90;;;;;;5031761;28;20225;-83
2021/07/25 02:43:46;;;;;;;37.53;24.45;;;18.70;99.90;;;;;;5030156;28;20198;-84
2021/07/25 02:46:13;;;;;;;26.92;18.10;;;18.60;99.90;;;;;;5031336;28;20195;-84
2021/07/25 02:48:40;;;;;;;21.67;14.13;;;18.50;99.90;;;;;;5029608;28;20241;-83
2021/07/25 02:51:07;;;;;;;22.15;10.50;;;18.50;99.90;;;;;;5030919;28;20206;-82
2021/07/25 02:53:34;;;;;;;13.77;8.48;;;18.40;99.90;;;;;;5029874;28;20211;-83
2021/07/25 02:56:01;;;;;;;12.98;8.32;;;18.40;99.90;;;;;;5029748;28;20229;-82
2021/07/25 02:58:28;;;;;;;12.77;7.78;;;18.40;99.90;;;;;;5039957;28;20210;-82
2021/07/25 03:00:56;;;;;;;17.25;11.65;;;18.30;99.90;;;;;;5047796;28;20205;-81
2021/07/25 03:03:23;;;;;;;21.02;15.20;;;18.30;99.90;;;;;;5033164;28;20217;-81
2021/07/25 03:05:50;;;;;;;20.25;11.82;;;18.30;99.90;;;;;;5028423;28;20205;-80
2021/07/25 03:08:17;;;;;;;12.25;8.50;;;18.30;99.90;;;;;;5027977;28;20524;-81
2021/07/25 03:10:44;;;;;;;9.43;7.45;;;18.30;99.90;;;;;;5027796;28;20206;-81
2021/07/25 03:13:11;;;;;;;14.30;9.38;;;18.30;99.90;;;;;;5039505;28;20222;-81
2021/07/25 03:15:37;;;;;;;7.93;7.13;;;18.30;99.90;;;;;;5045802;28;20204;-80
2021/07/25 03:18:06;;;;;;;9.05;7.60;;;18.30;99.90;;;;;;5027499;28;20203;-81
2021/07/25 03:20:32;;;;;;;8.70;7.80;;;18.30;99.90;;;;;;5026334;28;20238;-81
2021/07/25 03:22:59;;;;;;;12.70;9.15;;;18.30;99.90;;;;;;5028586;28;20214;-82
2021/07/25 03:25:26;;;;;;;10.23;7.40;;;18.30;99.90;;;;;;5027825;28;20211;-80
2021/07/25 03:27:53;;;;;;;12.35;5.97;;;18.30;99.90;;;;;;5027846;28;20211;-80
2021/07/25 03:30:20;;;;;;;10.02;5.30;;;18.20;99.90;;;;;;5027430;28;20209;-82
2021/07/25 03:32:47;;;;;;;8.82;5.35;;;18.30;99.90;;;;;;5026322;28;20195;-81
2021/07/25 03:35:15;;;;;;;6.95;4.63;;;18.20;99.90;;;;;;5027561;28;20213;-81
2021/07/25 03:37:44;;;;;;;7.35;5.20;;;18.20;99.90;;;;;;5026481;28;20198;-80
2021/07/25 03:40:12;;;;;;;7.82;4.25;;;18.10;99.90;;;;;;5026653;28;20203;-81
2021/07/25 03:42:39;;;;;;;5.45;4.50;;;18.10;99.90;;;;;;5026731;28;20229;-81
2021/07/25 03:45:07;;;;;;;5.35;4.55;;;18.10;99.90;;;;;;5026998;28;20199;-79
2021/07/25 03:47:34;;;;;;;9.05;4.82;;;18.00;99.90;;;;;;5027040;28;20204;-80
2021/07/25 03:50:01;;;;;;;4.80;4.35;;;18.00;99.90;;;;;;5027593;28;20237;-80
2021/07/25 03:52:29;;;;;;;9.15;5.15;;;18.00;99.90;;;;;;5026507;28;20519;-81
2021/07/25 03:54:56;;;;;;;7.13;5.38;;;17.90;99.90;;;;;;5026578;28;20214;-80
2021/07/25 03:57:23;;;;;;;6.82;6.15;;;17.90;99.90;;;;;;5026733;28;20193;-81
2021/07/25 03:59:49;;;;;;;8.57;5.75;;;17.80;99.90;;;;;;5026045;28;20203;-80
2021/07/25 04:02:16;;;;;;;6.57;5.63;;;17.80;99.90;;;;;;5026245;28;20242;-81
2021/07/25 04:04:43;;;;;;;6.60;5.80;;;17.80;99.90;;;;;;5025815;28;20206;-81
2021/07/25 04:07:10;;;;;;;7.28;5.57;;;17.80;99.90;;;;;;5026535;28;20206;-81
2021/07/25 04:09:38;;;;;;;7.13;6.40;;;17.80;99.90;;;;;;5025274;28;20218;-81
2021/07/25 04:12:05;;;;;;;7.93;6.90;;;17.80;99.90;;;;;;5026495;28;20226;-81
2021/07/25 04:14:32;;;;;;;6.93;6.22;;;17.80;99.90;;;;;;5025715;28;20230;-81
2021/07/25 04:16:59;;;;;;;7.80;7.10;;;17.80;99.90;;;;;;5026062;28;20476;-81
2021/07/25 04:19:27;;;;;;;9.00;8.10;;;17.80;99.90;;;;;;5025742;28;20238;-81
2021/07/25 04:21:54;;;;;;;9.60;8.60;;;17.70;99.90;;;;;;5026983;28;20206;-81
2021/07/25 04:24:21;;;;;;;10.18;9.15;;;17.70;99.90;;;;;;5045141;28;20221;-81
2021/07/25 04:26:50;;;;;;;12.13;10.32;;;17.70;99.90;;;;;;5046543;28;20198;-80
2021/07/25 04:29:17;;;;;;;11.15;10.05;;;17.70;99.90;;;;;;5027887;28;20237;-80
2021/07/25 04:31:44;;;;;;;10.50;9.43;;;17.70;99.90;;;;;;5026394;28;20760;-80
2021/07/25 04:34:12;;;;;;;10.43;9.35;;;17.70;99.90;;;;;;5026786;28;20198;-81
2021/07/25 04:36:39;;;;;;;13.63;11.13;;;17.70;99.90;;;;;;5026352;28;20264;-81
2021/07/25 04:39:09;;;;;;;11.43;10.32;;;17.70;99.90;;;;;;5027143;28;20206;-80
2021/07/25 04:41:40;;;;;;;14.27;12.68;;;17.70;99.90;;;;;;5026302;28;20221;-81
2021/07/25 04:44:17;;;;;;;15.60;14.00;;;17.80;99.90;;;;;;5027099;28;20257;-81
2021/07/25 04:46:48;;;;;;;16.52;14.70;;;17.70;99.90;;;;;;5027161;28;20206;-80
2021/07/25 04:49:16;;;;;;;23.08;20.13;;;17.80;99.90;;;;;;5026849;28;20322;-80
2021/07/25 04:51:45;;;;;;;28.70;25.77;;;17.80;99.90;;;;;;5024880;28;20198;-81
2021/07/25 04:54:13;;;;;;;40.17;34.08;;;17.80;99.90;;;;;;5026444;28;20213;-82
2021/07/25 04:56:57;;;;;;;43.78;36.05;;;17.80;99.90;;;;;;5025399;28;20495;-81
2021/07/25 04:59:29;;;;;;;61.33;47.75;;;17.90;99.90;;;;;;5026848;28;20210;-81
2021/07/25 05:02:00;;;;;;;63.60;49.10;;;17.90;99.90;;;;;;5027578;28;20226;-80
2021/07/25 05:04:29;;;;;;;65.60;49.15;;;17.90;99.90;;;;;;5027183;28;20510;-81
2021/07/25 05:06:56;;;;;;;73.82;53.42;;;18.00;99.90;;;;;;5028107;28;20214;-80
2021/07/25 05:09:24;;;;;;;66.75;51.08;;;18.00;99.90;;;;;;5029234;28;20626;-81
2021/07/25 05:11:53;;;;;;;59.83;46.08;;;18.00;99.90;;;;;;5046625;28;20205;-81
2021/07/25 05:14:22;;;;;;;61.33;46.22;;;18.00;99.90;;;;;;5046381;28;20289;-80
2021/07/25 05:17:01;;;;;;;47.40;38.72;;;18.00;99.90;;;;;;5046675;28;20201;-81
2021/07/25 05:19:35;;;;;;;48.17;37.25;;;18.10;99.90;;;;;;5044270;28;20241;-82
2021/07/25 05:22:09;;;;;;;46.40;37.20;;;18.10;99.90;;;;;;5045708;28;20237;-82
2021/07/25 05:24:44;;;;;;;56.30;42.70;;;18.10;99.90;;;;;;5045524;28;20240;-81
2021/07/25 05:27:18;;;;;;;49.13;36.60;;;18.10;99.90;;;;;;5046146;28;20608;-80
2021/07/25 05:29:46;;;;;;;43.88;35.03;;;18.10;99.90;;;;;;5037624;28;20280;-80
2021/07/25 05:32:15;;;;;;;44.88;34.35;;;18.20;99.90;;;;;;5026103;28;20206;-80
2021/07/25 05:34:42;;;;;;;49.55;36.88;;;18.20;99.90;;;;;;5026401;28;20591;-80
2021/07/25 05:37:08;;;;;;;52.63;39.70;;;18.20;99.90;;;;;;5026562;28;20202;-83
2021/07/25 05:39:35;;;;;;;61.25;46.05;;;18.30;99.90;;;;;;5026568;28;20213;-81
2021/07/25 05:42:03;;;;;;;57.05;42.28;;;18.30;99.90;;;;;;5027785;28;20222;-82
2021/07/25 05:44:31;;;;;;;54.80;42.10;;;18.40;99.90;;;;;;5025530;28;20202;-81
2021/07/25 05:46:58;;;;;;;48.95;37.88;;;18.40;99.90;;;;;;5025304;28;20199;-81
2021/07/25 05:49:26;;;;;;;51.83;39.47;;;18.50;99.90;;;;;;5036227;28;20229;-80
2021/07/25 05:51:53;;;;;;;41.33;31.50;;;18.50;99.90;;;;;;5046190;28;20190;-81
2021/07/25 05:54:20;;;;;;;31.02;25.48;;;18.60;99.90;;;;;;5045638;28;20205;-81
2021/07/25 05:56:47;;;;;;;26.98;22.70;;;18.60;99.90;;;;;;5046207;28;20216;-81
2021/07/25 05:59:14;;;;;;;25.08;21.60;;;18.60;99.90;;;;;;5047975;28;20212;-82
2021/07/25 06:01:41;;;;;;;19.88;17.75;;;18.70;99.90;;;;;;5046891;28;20229;-81
2021/07/25 06:04:08;;;;;;;27.05;23.75;;;18.80;99.90;;;;;;5048573;28;20206;-81
2021/07/25 06:06:36;;;;;;;23.83;19.85;;;18.90;99.90;;;;;;5048338;28;20208;-83
2021/07/25 06:09:04;;;;;;;31.25;25.10;;;19.00;99.90;;;;;;5030526;28;20941;-82
2021/07/25 06:11:31;;;;;;;28.95;23.25;;;19.10;99.90;;;;;;5026066;28;20233;-80
2021/07/25 06:13:58;;;;;;;31.23;24.33;;;19.30;99.90;;;;;;5027126;28;20206;-83
2021/07/25 06:16:26;;;;;;;32.90;26.20;;;19.50;99.90;;;;;;5028200;28;20297;-81
2021/07/25 06:18:52;;;;;;;36.05;27.60;;;19.60;99.90;;;;;;5027443;28;20649;-80
2021/07/25 06:21:20;;;;;;;38.67;31.40;;;19.90;99.90;;;;;;5026075;28;20198;-81
2021/07/25 06:23:49;;;;;;;42.85;34.58;;;20.10;99.90;;;;;;5042681;23;20268;-82
2021/07/25 06:26:17;;;;;;;44.17;33.80;;;20.40;99.90;;;;;;5065641;28;20201;-81
2021/07/25 06:28:45;;;;;;;44.03;34.42;;;20.60;99.90;;;;;;5063941;28;20201;-81
2021/07/25 06:31:11;;;;;;;59.40;46.55;;;20.80;99.90;;;;;;5058741;28;20226;-81
2021/07/25 06:33:38;;;;;;;47.85;39.72;;;21.00;99.90;;;;;;5044214;28;20231;-81
2021/07/25 06:36:09;;;;;;;53.63;45.15;;;21.20;99.90;;;;;;5043721;28;20202;-79
2021/07/25 06:38:36;;;;;;;68.18;49.70;;;21.40;99.90;;;;;;5043518;28;20218;-81
2021/07/25 06:41:04;;;;;;;73.97;56.08;;;21.60;99.90;;;;;;5044776;28;20205;-80
2021/07/25 06:43:32;;;;;;;75.40;60.30;;;21.80;99.90;;;;;;5044220;28;20194;-80
2021/07/25 06:46:25;;;;;;;67.50;54.38;;;22.00;99.90;;;;;;5031669;28;20823;-82
2021/07/25 06:48:52;;;;;;;78.68;59.63;;;22.10;99.90;;;;;;5043529;28;20205;-79
2021/07/25 06:51:19;;;;;;;70.97;55.45;;;22.10;99.90;;;;;;5044259;28;20238;-80
2021/07/25 06:53:45;;;;;;;69.57;54.05;;;22.20;99.90;;;;;;5043658;28;20209;-82
2021/07/25 06:56:14;;;;;;;60.45;48.05;;;22.40;99.90;;;;;;5045962;28;20521;-82
2021/07/25 06:58:42;;;;;;;56.38;46.78;;;22.60;99.90;;;;;;5047958;28;20210;-82
2021/07/25 07:01:10;;;;;;;56.10;47.35;;;22.80;99.90;;;;;;5067086;28;20588;-81
2021/07/25 07:03:38;;;;;;;53.58;45.42;;;23.00;99.90;;;;;;5022379;28;20208;-81
2021/07/25 07:06:07;;;;;;;58.70;47.50;;;23.20;99.90;;;;;;5068270;28;20209;-83
2021/07/25 07:08:34;;;;;;;51.25;43.90;;;23.30;99.90;;;;;;5066981;28;20287;-83
2021/07/25 07:11:01;;;;;;;48.53;41.15;;;23.40;99.90;;;;;;5066873;28;20213;-83
2021/07/25 07:13:29;;;;;;;42.67;36.40;;;23.60;99.90;;;;;;5063512;28;20205;-79
2021/07/25 07:15:57;;;;;;;42.33;37.00;;;23.70;99.90;;;;;;5047531;28;20194;-82
2021/07/25 07:18:24;;;;;;;34.20;30.50;;;23.70;99.90;;;;;;5059447;28;20213;-81
2021/07/25 07:20:51;;;;;;;36.78;30.38;;;23.60;99.90;;;;;;5065515;28;20201;-81
2021/07/25 07:23:21;;;;;;;32.17;28.73;;;23.70;99.90;;;;;;5048507;28;20217;-84
2021/07/25 07:25:49;;;;;;;39.58;32.08;;;23.80;99.90;;;;;;5047394;28;20206;-83
2021/07/25 07:28:19;;;;;;;39.88;35.45;;;23.90;99.90;;;;;;5047631;28;20213;-80
2021/07/25 07:30:48;;;;;;;40.22;35.88;;;24.00;99.90;;;;;;5047154;28;20232;-80
2021/07/25 07:33:16;;;;;;;40.92;35.58;;;23.90;99.90;;;;;;5047555;28;20889;-79
2021/07/25 07:35:43;;;;;;;43.08;38.30;;;23.70;99.90;;;;;;5047015;28;20201;-81
2021/07/25 07:38:12;;;;;;;47.33;41.40;;;23.40;99.90;;;;;;5054948;28;20209;-84
2021/07/25 07:40:40;;;;;;;42.70;38.00;;;23.30;99.90;;;;;;5056538;28;20638;-82
2021/07/25 07:43:11;;;;;;;52.65;43.40;;;23.10;99.90;;;;;;5051349;28;20490;-84
2021/07/25 07:45:39;;;;;;;45.35;39.33;;;22.90;99.90;;;;;;5049803;28;20186;-83
2021/07/25 07:48:10;;;;;;;47.65;41.53;;;22.80;99.90;;;;;;5054862;28;20212;-80
2021/07/25 07:50:37;;;;;;;43.47;36.10;;;22.70;99.90;;;;;;5053110;28;20253;-83
2021/07/25 07:53:04;;;;;;;40.83;35.10;;;22.70;99.90;;;;;;5047989;28;20198;-84
2021/07/25 07:55:31;;;;;;;37.95;31.73;;;22.60;99.90;;;;;;5048644;28;20206;-85
2021/07/25 07:57:58;;;;;;;40.38;33.72;;;22.50;99.90;;;;;;5047685;28;20209;-84
2021/07/25 08:00:25;;;;;;;36.22;30.15;;;22.50;99.90;;;;;;5062371;28;20209;-85
2021/07/25 08:02:52;;;;;;;34.95;29.30;;;22.50;99.90;;;;;;5067310;28;20236;-84
2021/07/25 08:05:20;;;;;;;29.23;25.10;;;22.50;99.90;;;;;;5067872;28;20212;-82
2021/07/25 08:07:47;;;;;;;31.58;25.45;;;22.30;99.90;;;;;;5058538;28;20209;-82
2021/07/25 08:10:14;;;;;;;31.48;24.10;;;22.30;99.90;;;;;;5048480;28;20218;-84
2021/07/25 08:12:41;;;;;;;24.17;19.98;;;22.20;99.90;;;;;;5066430;28;20201;-82
2021/07/25 08:15:10;;;;;;;27.27;22.63;;;22.10;99.90;;;;;;5066227;28;20194;-83
2021/07/25 08:17:37;;;;;;;27.75;24.08;;;22.10;99.90;;;;;;5067202;28;20205;-85
2021/07/25 08:20:05;;;;;;;27.60;23.27;;;22.00;99.90;;;;;;5067721;28;20529;-84
2021/07/25 08:22:33;;;;;;;27.17;21.83;;;22.00;99.90;;;;;;5053137;28;20213;-83
2021/07/25 08:25:00;;;;;;;26.48;23.48;;;22.00;99.90;;;;;;5048592;28;20284;-80
2021/07/25 08:27:26;;;;;;;30.08;25.42;;;21.90;99.90;;;;;;5048857;28;20198;-83
2021/07/25 08:29:53;;;;;;;34.55;29.55;;;21.90;99.90;;;;;;5046546;28;20236;-85
2021/07/25 08:32:20;;;;;;;45.53;34.70;;;21.90;99.90;;;;;;5048467;28;20213;-80
2021/07/25 08:34:47;;;;;;;36.88;32.75;;;21.90;99.90;;;;;;5046766;28;20472;-82
2021/07/25 08:37:14;;;;;;;44.30;39.00;;;21.80;99.90;;;;;;5048147;28;20197;-87
2021/07/25 08:39:42;;;;;;;46.58;39.63;;;21.80;99.90;;;;;;5047694;28;20214;-83
2021/07/25 08:42:11;;;;;;;48.08;40.65;;;21.80;99.90;;;;;;5047753;28;20772;-80
2021/07/25 08:44:50;;;;;;;54.78;44.50;;;21.80;99.90;;;;;;5046906;28;20668;-80
2021/07/25 08:47:23;;;;;;;52.30;43.10;;;21.80;99.90;;;;;;5047620;28;20523;-80
2021/07/25 08:49:53;;;;;;;56.00;45.42;;;21.80;99.90;;;;;;5045247;28;20286;-80
2021/07/25 08:52:21;;;;;;;59.42;48.83;;;21.90;99.90;;;;;;5045783;28;20202;-79
2021/07/25 08:54:50;;;;;;;60.95;51.22;;;22.00;99.90;;;;;;5044795;28;20343;-81
2021/07/25 08:57:20;;;;;;;82.47;64.80;;;22.10;99.90;;;;;;5045115;28;20214;-81
2021/07/25 08:59:49;;;;;;;81.82;61.92;;;22.20;99.90;;;;;;5046807;28;20507;-80
2021/07/25 09:02:22;;;;;;;65.47;52.65;;;22.30;99.90;;;;;;5051176;28;20831;-82
2021/07/25 09:04:51;;;;;;;57.88;47.80;;;22.30;99.90;;;;;;5046264;28;20658;-79
2021/07/25 09:07:20;;;;;;;54.47;45.63;;;22.20;99.90;;;;;;5046292;28;20568;-79
2021/07/25 09:09:50;;;;;;;51.78;42.83;;;22.20;99.90;;;;;;5045071;28;20206;-81
2021/07/25 09:12:19;;;;;;;59.28;47.75;;;22.20;99.90;;;;;;5046625;28;20197;-81
2021/07/25 09:14:47;;;;;;;60.58;48.40;;;22.20;99.90;;;;;;5045506;28;20217;-83
2021/07/25 09:17:14;;;;;;;60.05;47.53;;;22.20;99.90;;;;;;5045851;28;20867;-88
2021/07/25 09:20:08;;;;;;;59.58;48.47;;;22.20;99.90;;;;;;5045811;28;20198;-83
2021/07/25 09:22:35;;;;;;;51.47;42.88;;;22.10;99.90;;;;;;5050266;28;20729;-83
2021/07/25 09:25:05;;;;;;;50.60;42.78;;;22.10;99.90;;;;;;5063750;28;20237;-87
2021/07/25 09:27:32;;;;;;;47.33;39.60;;;22.10;99.90;;;;;;5053263;28;20217;-81
2021/07/25 09:30:15;;;;;;;44.72;38.55;;;22.10;99.90;;;;;;5043431;28;20229;-80
2021/07/25 09:32:42;;;;;;;31.65;27.33;;;22.00;99.90;;;;;;5042975;28;20214;-80
2021/07/25 09:35:23;;;;;;;30.88;26.35;;;21.90;99.90;;;;;;5043718;28;20210;-81
2021/07/25 09:37:51;;;;;;;36.38;31.27;;;21.90;99.90;;;;;;5043453;28;20209;-80
2021/07/25 09:40:25;;;;;;;37.55;32.60;;;21.90;99.90;;;;;;5043299;28;20501;-80
2021/07/25 09:43:09;;;;;;;33.42;28.27;;;21.90;99.90;;;;;;5043420;28;20206;-81
2021/07/25 09:45:55;;;;;;;36.08;31.15;;;21.90;99.90;;;;;;5043859;28;20263;-82
2021/07/25 09:48:23;;;;;;;38.00;31.52;;;21.90;99.90;;;;;;5044048;28;20898;-84
2021/07/25 09:50:51;;;;;;;34.72;30.88;;;22.00;99.90;;;;;;5043614;28;20221;-83
2021/07/25 09:53:19;;;;;;;33.00;29.20;;;22.00;99.90;;;;;;5044367;28;20209;-81
2021/07/25 09:55:47;;;;;;;26.95;23.23;;;22.10;99.90;;;;;;5041332;28;20297;-80
2021/07/25 09:58:15;;;;;;;34.88;28.95;;;22.10;99.90;;;;;;5043845;28;20212;-83
2021/07/25 10:00:43;;;;;;;35.67;26.85;;;22.10;99.90;;;;;;5041997;28;20213;-81
2021/07/25 10:03:23;;;;;;;37.55;31.92;;;22.20;99.90;;;;;;5044384;28;20202;-82
2021/07/25 10:05:50;;;;;;;33.30;27.48;;;22.30;99.90;;;;;;5043120;28;20232;-80
2021/07/25 10:08:18;;;;;;;31.70;26.95;;;22.40;99.90;;;;;;5043406;28;20206;-81
2021/07/25 10:10:48;;;;;;;27.48;24.25;;;22.40;99.90;;;;;;5043257;28;20241;-87
2021/07/25 10:13:17;;;;;;;33.00;27.67;;;22.50;99.90;;;;;;5044701;28;20194;-85
2021/07/25 10:15:51;;;;;;;32.42;26.25;;;22.60;99.90;;;;;;5043850;28;20300;-82
2021/07/25 10:18:18;;;;;;;27.45;23.10;;;22.70;99.90;;;;;;5045435;28;20206;-82
2021/07/25 10:20:46;;;;;;;27.48;22.85;;;22.90;99.90;;;;;;5044470;28;20210;-82
2021/07/25 10:23:17;;;;;;;38.63;31.48;;;23.00;99.90;;;;;;5044785;28;20213;-81
2021/07/25 10:25:49;;;;;;;33.20;26.73;;;23.20;99.90;;;;;;5044810;28;20482;-83
2021/07/25 10:28:18;;;;;;;33.65;26.27;;;23.50;99.90;;;;;;5045168;28;20217;-82
2021/07/25 10:30:46;;;;;;;31.33;25.50;;;24.00;99.90;;;;;;5044495;28;20236;-81
2021/07/25 10:33:15;;;;;;;30.20;24.50;;;24.60;99.90;;;;;;5047342;28;20209;-85
2021/07/25 10:35:43;;;;;;;32.45;24.25;;;25.10;99.90;;;;;;5047225;28;20229;-80
2021/07/25 10:38:10;;;;;;;24.98;20.60;;;25.50;99.90;;;;;;5048166;28;20201;-83
2021/07/25 10:40:37;;;;;;;23.05;19.77;;;26.00;99.90;;;;;;5047558;28;20213;-83
2021/07/25 10:43:07;;;;;;;21.67;17.42;;;26.40;99.90;;;;;;5049435;28;20209;-86
2021/07/25 10:45:36;;;;;;;19.65;14.80;;;26.70;99.90;;;;;;5057297;28;20213;-88
2021/07/25 10:48:16;;;;;;;20.70;17.40;;;27.00;99.90;;;;;;5073240;28;20209;-87
2021/07/25 10:50:43;;;;;;;17.20;15.18;;;27.10;99.90;;;;;;5073315;28;20260;-89
2021/07/25 10:53:22;;;;;;;22.27;17.27;;;27.40;99.90;;;;;;5069949;28;20213;-83
2021/07/25 10:55:51;;;;;;;20.27;17.45;;;27.60;99.90;;;;;;5058809;28;20247;-88
2021/07/25 10:58:21;;;;;;;18.55;16.65;;;27.70;99.90;;;;;;5057498;28;20223;-87
2021/07/25 11:00:53;;;;;;;15.57;13.60;;;27.90;99.90;;;;;;5061531;28;20839;-88
2021/07/25 11:03:42;;;;;;;15.57;13.30;;;27.90;99.90;;;;;;5070526;28;20206;-90
2021/07/25 11:06:17;;;;;;;16.17;13.30;;;28.00;99.90;;;;;;5060395;28;20194;-83
2021/07/25 11:08:46;;;;;;;15.02;13.52;;;27.70;99.90;;;;;;5054127;28;20201;-85
2021/07/25 11:11:51;;;;;;;11.88;10.73;;;27.70;99.90;;;;;;5049188;28;20222;-84
2021/07/25 11:15:07;;;;;;;14.55;13.15;;;27.60;99.90;;;;;;5048998;28;20201;-84
2021/07/25 11:17:53;;;;;;;16.42;13.60;;;27.50;99.90;;;;;;5047942;28;20321;-83
2021/07/25 11:21:04;;;;;;;21.90;12.77;;;27.30;99.90;;;;;;5048984;28;20209;-88
2021/07/25 11:23:36;;;;;;;13.13;11.70;;;27.00;99.90;;;;;;5021327;28;20194;-87
2021/07/25 11:26:33;;;;;;;13.18;11.75;;;26.70;99.90;;;;;;5050403;28;20213;-89
2021/07/25 11:29:01;;;;;;;13.13;11.75;;;26.70;99.90;;;;;;5053814;28;20660;-84
2021/07/25 11:31:42;;;;;;;13.68;12.35;;;26.50;99.90;;;;;;5069247;28;20225;-88
2021/07/25 11:34:13;;;;;;;14.55;11.25;;;26.50;99.90;;;;;;5074458;28;20211;-89
2021/07/25 11:36:40;;;;;;;15.30;13.70;;;26.40;99.90;;;;;;5055356;28;20209;-86
2021/07/25 11:39:08;;;;;;;17.63;15.00;;;26.30;99.90;;;;;;5067852;28;20216;-82
2021/07/25 11:41:38;;;;;;;15.73;13.50;;;26.30;99.90;;;;;;5092043;28;20555;-89
2021/07/25 11:44:06;;;;;;;21.33;16.25;;;26.30;99.90;;;;;;5092762;28;20249;-90
2021/07/25 11:46:35;;;;;;;19.13;15.80;;;26.20;99.90;;;;;;5086404;28;20196;-90
2021/07/25 11:49:20;;;;;;;14.00;12.52;;;26.20;99.90;;;;;;5072797;28;20506;-89
2021/07/25 11:51:50;;;;;;;19.98;15.05;;;26.30;99.90;;;;;;5070108;28;20575;-89
2021/07/25 11:54:22;;;;;;;15.15;13.63;;;26.40;99.90;;;;;;5051851;28;20296;-88
2021/07/25 11:57:03;;;;;;;16.08;14.40;;;26.50;99.90;;;;;;5050579;28;20195;-88
2021/07/25 11:59:31;;;;;;;17.60;14.60;;;26.60;99.90;;;;;;5051000;28;20208;-92
2021/07/25 12:01:59;;;;;;;15.75;14.07;;;26.70;99.90;;;;;;5053388;28;20673;-90
2021/07/25 12:04:28;;;;;;;19.80;17.30;;;26.70;99.90;;;;;;5048844;28;20372;-89
2021/07/25 12:07:04;;;;;;;16.88;15.15;;;26.70;99.90;;;;;;5050306;28;20202;-87
2021/07/25 12:09:31;;;;;;;15.65;13.93;;;26.70;99.90;;;;;;5050255;28;20212;-87
2021/07/25 12:12:08;;;;;;;13.57;12.25;;;26.70;99.90;;;;;;5051480;28;20226;-83
2021/07/25 12:14:37;;;;;;;13.98;12.40;;;26.80;99.90;;;;;;5049323;28;20197;-88
2021/07/25 12:17:05;;;;;;;14.68;13.18;;;26.80;99.90;;;;;;5050711;28;20206;-87
2021/07/25 12:19:38;;;;;;;16.17;14.45;;;26.90;99.90;;;;;;5050226;28;20498;-87
2021/07/25 12:22:14;;;;;;;17.30;13.07;;;26.90;99.90;;;;;;5050338;28;20193;-86
2021/07/25 12:24:42;;;;;;;11.88;9.65;;;27.00;99.90;;;;;;5049477;28;20236;-84
2021/07/25 12:27:31;;;;;;;13.98;10.90;;;27.10;99.90;;;;;;5049948;28;20641;-85
2021/07/25 12:30:12;;;;;;;14.13;12.52;;;27.10;99.90;;;;;;5048845;28;20194;-84
2021/07/25 12:32:40;;;;;;;11.13;9.73;;;27.40;99.90;;;;;;5049529;28;20216;-83
2021/07/25 12:35:32;;;;;;;17.88;14.13;;;27.60;99.90;;;;;;5067467;28;20213;-87
2021/07/25 12:38:00;;;;;;;11.60;10.40;;;27.60;99.90;;;;;;5069011;28;20230;-83
2021/07/25 12:40:28;;;;;;;13.13;10.25;;;27.70;99.90;;;;;;5068617;28;20217;-82